Time;durP1;ratioP1;P1;durP2;ratioP2;P2;SDS_P1;SDS_P2;PMS_P1;PMS_P2;Temp;Humidity;BMP_temperature;BMP_pressure;BME280_temperature;BME280_humidity;BME280_pressure;Samples;Min_cycle;Max_cycle;Signal;HPM_P1;HPM_P2
2024/01/12 00:01:05;;;;;;;40.83;23.98;;;;;;;0.05;100.00;103353.22;5019485;28;20188;-56
2024/01/12 00:03:30;;;;;;;40.97;24.10;;;;;;;0.05;100.00;103350.59;5017459;28;20109;-55
2024/01/12 00:05:56;;;;;;;40.50;23.63;;;;;;;0.06;100.00;103354.94;5019776;28;20072;-55
2024/01/12 00:08:21;;;;;;;40.78;24.42;;;;;;;0.06;100.00;103348.84;5019095;28;20025;-55
2024/01/12 00:10:46;;;;;;;38.42;23.63;;;;;;;0.06;100.00;103348.84;5018686;28;20037;-54
2024/01/12 00:13:12;;;;;;;41.25;23.95;;;;;;;0.07;100.00;103350.63;5019015;28;20079;-52
2024/01/12 00:15:37;;;;;;;40.75;23.08;;;;;;;0.06;100.00;103356.69;5016704;28;20109;-53
2024/01/12 00:18:03;;;;;;;40.15;23.80;;;;;;;0.07;100.00;103356.72;5018708;28;20056;-55
2024/01/12 00:20:28;;;;;;;37.25;23.27;;;;;;;0.07;100.00;103353.22;5020548;28;20112;-55
2024/01/12 00:22:56;;;;;;;44.28;24.80;;;;;;;0.08;100.00;103354.97;5019147;28;20029;-54
2024/01/12 00:25:22;;;;;;;38.92;23.77;;;;;;;0.09;100.00;103351.50;5020868;28;20033;-52
2024/01/12 00:27:47;;;;;;;37.38;22.33;;;;;;;0.08;100.00;103348.00;5017959;28;20060;-55
2024/01/12 00:30:12;;;;;;;37.28;22.73;;;;;;;0.10;100.00;103353.22;5015857;28;20057;-56
2024/01/12 00:32:39;;;;;;;42.72;22.55;;;;;;;0.09;100.00;103354.97;5023305;28;20561;-52
2024/01/12 00:35:04;;;;;;;37.65;22.77;;;;;;;0.08;100.00;103355.81;5022166;28;20029;-55
2024/01/12 00:37:30;;;;;;;37.53;22.40;;;;;;;0.08;100.00;103348.00;5018191;28;20492;-54
2024/01/12 00:39:55;;;;;;;36.42;22.17;;;;;;;0.09;100.00;103354.09;5023406;28;20399;-55
2024/01/12 00:42:20;;;;;;;37.15;21.90;;;;;;;0.08;100.00;103353.22;5019506;28;20026;-55
2024/01/12 00:44:46;;;;;;;36.17;22.02;;;;;;;0.10;100.00;103353.22;5022102;28;20026;-55
2024/01/12 00:47:11;;;;;;;36.50;21.98;;;;;;;0.09;100.00;103354.09;5017168;28;20034;-55
2024/01/12 00:49:36;;;;;;;37.47;22.10;;;;;;;0.08;100.00;103350.59;5019813;28;20037;-56
2024/01/12 00:52:01;;;;;;;38.63;23.10;;;;;;;0.08;100.00;103358.44;5016827;28;20116;-53
2024/01/12 00:54:27;;;;;;;37.47;22.02;;;;;;;0.08;100.00;103368.03;5021367;28;20029;-54
2024/01/12 00:56:53;;;;;;;38.13;22.83;;;;;;;0.08;100.00;103368.88;5016002;28;20030;-55
2024/01/12 00:59:19;;;;;;;43.10;22.88;;;;;;;0.08;100.00;103366.28;5020669;28;20075;-56
2024/01/12 01:01:44;;;;;;;36.03;23.15;;;;;;;0.08;100.00;103366.28;5018707;28;20398;-55
2024/01/12 01:04:09;;;;;;;39.22;23.17;;;;;;;0.08;100.00;103361.06;5020245;28;20594;-56
2024/01/12 01:06:35;;;;;;;42.22;23.70;;;;;;;0.08;100.00;103363.66;5016381;28;20026;-55
2024/01/12 01:09:00;;;;;;;39.03;23.15;;;;;;;0.09;100.00;103367.19;5019978;28;20116;-55
2024/01/12 01:11:25;;;;;;;35.05;22.13;;;;;;;0.09;100.00;103359.34;5019382;28;20018;-55
2024/01/12 01:13:51;;;;;;;37.88;23.58;;;;;;;0.09;100.00;103352.38;5015029;28;20029;-53
2024/01/12 01:16:17;;;;;;;38.97;22.05;;;;;;;0.09;100.00;103360.19;5017698;28;20406;-55
2024/01/12 01:18:42;;;;;;;39.53;23.58;;;;;;;0.09;100.00;103351.50;5017719;28;20465;-55
2024/01/12 01:21:08;;;;;;;38.05;23.42;;;;;;;0.10;100.00;103356.75;5017405;28;20395;-55
2024/01/12 01:23:33;;;;;;;42.58;24.38;;;;;;;0.09;100.00;103361.94;5022085;28;20109;-56
2024/01/12 01:25:59;;;;;;;40.33;23.98;;;;;;;0.09;100.00;103373.28;5014445;28;20116;-55
2024/01/12 01:28:24;;;;;;;39.35;22.90;;;;;;;0.10;100.00;103369.81;5018149;28;20022;-54
2024/01/12 01:30:49;;;;;;;42.80;24.27;;;;;;;0.09;100.00;103380.25;5014600;28;20111;-56
2024/01/12 01:33:15;;;;;;;38.38;22.50;;;;;;;0.09;100.00;103372.41;5014908;28;20030;-54
2024/01/12 01:35:40;;;;;;;39.15;22.70;;;;;;;0.09;100.00;103386.34;5016471;28;20026;-54
2024/01/12 01:38:05;;;;;;;39.95;23.27;;;;;;;0.09;100.00;103388.09;5018860;28;20033;-53
2024/01/12 01:40:31;;;;;;;40.58;22.85;;;;;;;0.08;100.00;103392.41;5018409;28;20029;-55
2024/01/12 01:42:56;;;;;;;41.38;23.60;;;;;;;0.08;100.00;103392.41;5019246;28;20044;-56
2024/01/12 01:45:22;;;;;;;41.63;24.33;;;;;;;0.08;100.00;103402.88;5014564;28;20387;-55
2024/01/12 01:47:47;;;;;;;42.13;23.80;;;;;;;0.08;100.00;103405.47;5017733;28;20025;-52
2024/01/12 01:50:14;;;;;;;46.28;24.88;;;;;;;0.08;100.00;103402.88;5014241;28;20053;-52
2024/01/12 01:52:41;;;;;;;39.03;22.25;;;;;;;0.07;100.00;103402.88;5015283;28;20029;-53
2024/01/12 01:55:07;;;;;;;36.45;21.98;;;;;;;0.08;100.00;103396.78;5015444;28;20060;-54
2024/01/12 01:57:33;;;;;;;37.35;23.92;;;;;;;0.06;100.00;103394.16;5017971;28;20482;-53
2024/01/12 01:59:59;;;;;;;39.47;23.38;;;;;;;0.06;100.00;103394.16;5013338;28;20033;-55
2024/01/12 02:02:25;;;;;;;38.00;23.00;;;;;;;0.07;100.00;103397.66;5019207;28;20038;-55
2024/01/12 02:04:51;;;;;;;38.97;22.85;;;;;;;0.06;100.00;103388.91;5018154;28;20438;-55
2024/01/12 02:07:17;;;;;;;36.72;21.73;;;;;;;0.05;100.00;103387.19;5022201;28;20034;-55
2024/01/12 02:09:42;;;;;;;38.85;21.92;;;;;;;0.06;100.00;103388.06;5021698;28;20496;-53
2024/01/12 02:12:08;;;;;;;36.65;22.88;;;;;;;0.05;100.00;103373.22;5021097;28;20029;-55
2024/01/12 02:14:33;;;;;;;35.92;22.80;;;;;;;0.05;100.00;103379.34;5019424;28;20026;-55
2024/01/12 02:16:59;;;;;;;38.90;23.25;;;;;;;0.05;100.00;103371.50;5024155;28;20026;-53
2024/01/12 02:19:24;;;;;;;38.85;23.90;;;;;;;0.06;100.00;103370.63;5023158;28;20484;-55
2024/01/12 02:21:49;;;;;;;38.40;23.90;;;;;;;0.06;100.00;103362.78;5022253;28;20120;-54
2024/01/12 02:24:15;;;;;;;38.83;22.63;;;;;;;0.05;100.00;103361.06;5022711;28;20018;-52
2024/01/12 02:26:40;;;;;;;41.13;23.60;;;;;;;0.06;100.00;103372.38;5022351;28;20083;-55
2024/01/12 02:29:05;;;;;;;41.85;24.63;;;;;;;0.06;100.00;103381.06;5017589;28;20419;-56
2024/01/12 02:31:31;;;;;;;41.05;25.00;;;;;;;0.07;100.00;103371.53;5022391;28;20469;-54
2024/01/12 02:33:56;;;;;;;40.97;23.15;;;;;;;0.06;100.00;103373.25;5019103;28;20444;-53
2024/01/12 02:36:26;;;;;;;40.78;23.92;;;;;;;0.07;100.00;103376.75;5021905;28;20033;-53
2024/01/12 02:38:51;;;;;;;38.70;23.27;;;;;;;0.06;100.00;103374.97;5022315;28;20393;-55
2024/01/12 02:41:17;;;;;;;44.65;23.40;;;;;;;0.07;100.00;103379.38;5024112;28;20025;-52
2024/01/12 02:43:42;;;;;;;37.88;22.35;;;;;;;0.06;100.00;103377.59;5021093;28;20129;-55
2024/01/12 02:46:07;;;;;;;41.80;24.42;;;;;;;0.06;100.00;103377.59;5021235;28;20545;-54
2024/01/12 02:48:33;;;;;;;41.10;23.58;;;;;;;0.06;100.00;103378.47;5019493;28;20059;-53
2024/01/12 02:50:58;;;;;;;40.17;24.55;;;;;;;0.06;100.00;103377.59;5020833;28;20398;-55
2024/01/12 02:53:23;;;;;;;44.85;24.92;;;;;;;0.06;100.00;103365.41;5020721;28;20034;-56
2024/01/12 02:55:49;;;;;;;41.75;24.42;;;;;;;0.04;100.00;103358.44;5021861;28;20029;-53
2024/01/12 02:58:14;;;;;;;39.63;23.35;;;;;;;0.05;100.00;103362.78;5018587;28;20034;-53
2024/01/12 03:00:39;;;;;;;40.08;23.60;;;;;;;0.04;100.00;103356.69;5020983;28;20397;-53
2024/01/12 03:03:04;;;;;;;39.03;23.67;;;;;;;0.05;100.00;103354.94;5018190;28;20392;-55
2024/01/12 03:05:31;;;;;;;38.90;24.52;;;;;;;0.04;100.00;103354.06;5020573;28;20052;-56
2024/01/12 03:07:56;;;;;;;40.13;24.60;;;;;;;0.05;100.00;103347.09;5018266;28;20474;-52
2024/01/12 03:10:21;;;;;;;40.38;23.58;;;;;;;0.05;100.00;103352.31;5021286;28;20033;-53
2024/01/12 03:12:46;;;;;;;42.63;25.02;;;;;;;0.05;100.00;103352.31;5019039;28;20434;-53
2024/01/12 03:15:12;;;;;;;40.45;24.08;;;;;;;0.06;100.00;103346.25;5023474;28;20042;-56
2024/01/12 03:17:38;;;;;;;41.72;24.42;;;;;;;0.05;100.00;103357.53;5018081;28;20026;-54
2024/01/12 03:20:05;;;;;;;44.30;24.23;;;;;;;0.06;100.00;103354.94;5015237;28;20025;-53
2024/01/12 03:22:30;;;;;;;39.45;23.88;;;;;;;0.05;100.00;103353.22;5019338;28;20101;-52
2024/01/12 03:24:55;;;;;;;38.38;23.85;;;;;;;0.05;100.00;103348.00;5022724;28;20485;-54
2024/01/12 03:27:20;;;;;;;40.47;23.60;;;;;;;0.06;100.00;103351.47;5018488;28;20543;-53
2024/01/12 03:29:46;;;;;;;41.63;22.92;;;;;;;0.06;100.00;103352.34;5022198;28;20036;-55
2024/01/12 03:32:11;;;;;;;37.63;23.10;;;;;;;0.06;100.00;103346.25;5023939;28;20097;-52
2024/01/12 03:34:36;;;;;;;37.63;22.67;;;;;;;0.05;100.00;103344.47;5014603;28;20108;-55
2024/01/12 03:37:02;;;;;;;39.33;25.27;;;;;;;0.06;100.00;103343.63;5020794;28;20159;-52
2024/01/12 03:39:27;;;;;;;41.65;24.42;;;;;;;0.07;100.00;103348.88;5021322;28;20034;-55
2024/01/12 03:41:52;;;;;;;40.97;23.88;;;;;;;0.07;100.00;103351.47;5021472;28;20399;-56
2024/01/12 03:44:17;;;;;;;35.63;21.83;;;;;;;0.08;100.00;103348.00;5023360;28;20033;-55
2024/01/12 03:46:43;;;;;;;41.95;23.30;;;;;;;0.08;100.00;103345.38;5021346;28;20041;-54
2024/01/12 03:49:08;;;;;;;38.05;23.35;;;;;;;0.08;100.00;103340.16;5018372;28;20450;-57
2024/01/12 03:51:33;;;;;;;42.72;22.45;;;;;;;0.08;100.00;103345.38;5020320;28;20041;-57
2024/01/12 03:53:58;;;;;;;35.80;22.60;;;;;;;0.10;100.00;103337.56;5020862;28;20110;-56
2024/01/12 03:56:24;;;;;;;37.85;22.95;;;;;;;0.11;100.00;103332.34;5021147;28;20022;-56
2024/01/12 03:58:49;;;;;;;44.40;23.33;;;;;;;0.11;100.00;103342.78;5023108;28;20498;-54
2024/01/12 04:01:14;;;;;;;36.88;23.17;;;;;;;0.13;100.00;103342.81;5019603;28;20037;-54
2024/01/12 04:03:40;;;;;;;39.67;22.40;;;;;;;0.10;100.00;103332.31;5020340;28;20155;-56
2024/01/12 04:06:09;;;;;;;39.85;23.23;;;;;;;0.10;100.00;103328.00;5023293;28;20021;-56
2024/01/12 04:08:34;;;;;;;42.45;22.88;;;;;;;0.11;100.00;103329.72;5022797;28;20021;-55
2024/01/12 04:11:00;;;;;;;38.50;24.25;;;;;;;0.12;100.00;103322.78;5017719;28;20034;-54
2024/01/12 04:13:25;;;;;;;38.70;22.13;;;;;;;0.12;100.00;103331.47;5020298;28;20076;-56
2024/01/12 04:15:51;;;;;;;37.55;22.55;;;;;;;0.13;100.00;103329.72;5020641;28;20034;-57
2024/01/12 04:18:16;;;;;;;40.85;23.77;;;;;;;0.14;100.00;103321.03;5022418;28;20033;-56
2024/01/12 04:20:41;;;;;;;40.75;23.77;;;;;;;0.13;100.00;103333.25;5024341;28;20033;-56
2024/01/12 04:23:07;;;;;;;40.83;23.25;;;;;;;0.14;100.00;103326.28;5019139;28;20065;-54
2024/01/12 04:25:32;;;;;;;41.72;24.00;;;;;;;0.14;100.00;103328.88;5019662;28;20565;-57
2024/01/12 04:27:57;;;;;;;37.63;22.77;;;;;;;0.15;100.00;103331.50;5017513;28;20029;-57
2024/01/12 04:30:22;;;;;;;37.45;22.15;;;;;;;0.14;100.00;103334.09;5021654;28;20387;-56
2024/01/12 04:32:48;;;;;;;37.55;24.65;;;;;;;0.15;100.00;103341.06;5017945;28;20035;-56
2024/01/12 04:35:13;;;;;;;40.17;24.23;;;;;;;0.15;100.00;103339.34;5015545;28;20379;-54
2024/01/12 04:37:38;;;;;;;36.58;22.80;;;;;;;0.16;100.00;103348.06;5016036;28;20156;-57
2024/01/12 04:40:04;;;;;;;36.60;22.38;;;;;;;0.14;100.00;103345.44;5021444;28;20376;-57
2024/01/12 04:42:29;;;;;;;40.63;24.15;;;;;;;0.13;100.00;103342.81;5021390;28;20083;-57
2024/01/12 04:44:55;;;;;;;40.15;22.85;;;;;;;0.15;100.00;103333.22;5021227;28;20524;-57
2024/01/12 04:47:20;;;;;;;40.55;23.73;;;;;;;0.14;100.00;103334.09;5019336;28;20037;-55
2024/01/12 04:49:45;;;;;;;42.85;24.95;;;;;;;0.13;100.00;103342.81;5019877;28;20529;-54
2024/01/12 04:52:10;;;;;;;39.25;23.40;;;;;;;0.12;100.00;103344.56;5018952;28;20046;-57
2024/01/12 04:54:36;;;;;;;42.78;22.90;;;;;;;0.13;100.00;103342.81;5019111;28;20026;-58
2024/01/12 04:57:01;;;;;;;40.67;23.65;;;;;;;0.14;100.00;103349.78;5016541;28;20364;-55
2024/01/12 04:59:26;;;;;;;39.65;22.20;;;;;;;0.13;100.00;103343.69;5020175;28;20119;-56
2024/01/12 05:01:52;;;;;;;39.15;22.70;;;;;;;0.13;100.00;103337.56;5016330;28;20021;-56
2024/01/12 05:04:17;;;;;;;37.42;23.20;;;;;;;0.12;100.00;103330.63;5016437;28;20033;-57
2024/01/12 05:06:43;;;;;;;38.40;23.25;;;;;;;0.11;100.00;103334.94;5017418;28;20048;-55
2024/01/12 05:09:08;;;;;;;38.85;22.58;;;;;;;0.12;100.00;103330.63;5019587;28;20033;-57
2024/01/12 05:11:33;;;;;;;38.13;23.73;;;;;;;0.11;100.00;103332.34;5015694;28;20018;-56
2024/01/12 05:13:59;;;;;;;38.95;22.85;;;;;;;0.11;100.00;103329.72;5016075;28;20120;-57
2024/01/12 05:16:25;;;;;;;40.63;22.90;;;;;;;0.11;100.00;103323.63;5023498;28;20124;-56
2024/01/12 05:18:50;;;;;;;38.60;23.90;;;;;;;0.11;100.00;103321.03;5020839;28;20113;-57
2024/01/12 05:21:16;;;;;;;40.67;21.75;;;;;;;0.12;100.00;103310.56;5021386;28;20054;-55
2024/01/12 05:23:44;;;;;;;37.47;22.75;;;;;;;0.13;100.00;103314.06;5017043;28;20031;-57
2024/01/12 05:26:12;;;;;;;37.08;22.10;;;;;;;0.13;100.00;103322.78;5016612;28;20117;-56
2024/01/12 05:28:38;;;;;;;38.67;22.80;;;;;;;0.14;100.00;103326.28;5018761;28;20032;-56
2024/01/12 05:31:03;;;;;;;38.22;21.45;;;;;;;0.13;100.00;103325.41;5019999;28;20116;-55
2024/01/12 05:33:28;;;;;;;39.70;21.10;;;;;;;0.16;100.00;103321.91;5019057;28;20064;-56
2024/01/12 05:35:54;;;;;;;34.40;20.52;;;;;;;0.16;100.00;103314.09;5018205;28;20076;-56
2024/01/12 05:38:19;;;;;;;35.70;20.88;;;;;;;0.16;100.00;103314.09;5022395;28;20389;-56
2024/01/12 05:40:45;;;;;;;38.45;21.20;;;;;;;0.16;100.00;103314.94;5015750;28;20368;-57
2024/01/12 05:43:10;;;;;;;33.97;19.75;;;;;;;0.19;100.00;103314.09;5023265;28;20479;-57
2024/01/12 05:45:35;;;;;;;36.22;20.50;;;;;;;0.19;100.00;103314.09;5021883;28;20120;-57
2024/01/12 05:48:01;;;;;;;38.65;19.65;;;;;;;0.20;100.00;103314.97;5022969;28;20140;-57
2024/01/12 05:50:26;;;;;;;38.20;20.50;;;;;;;0.20;100.00;103321.09;5017772;28;20443;-57
2024/01/12 05:52:51;;;;;;;35.50;20.25;;;;;;;0.21;100.00;103321.97;5024885;28;20467;-55
2024/01/12 05:55:17;;;;;;;35.50;20.10;;;;;;;0.21;100.00;103321.97;5022226;28;20030;-57
2024/01/12 05:57:42;;;;;;;36.53;19.88;;;;;;;0.22;100.00;103328.91;5021725;28;20030;-57
2024/01/12 06:00:09;;;;;;;33.20;19.77;;;;;;;0.21;100.00;103329.81;5022030;28;20040;-57
2024/01/12 06:02:34;;;;;;;34.03;19.65;;;;;;;0.21;100.00;103332.41;5023577;28;20517;-57
2024/01/12 06:04:59;;;;;;;32.33;18.85;;;;;;;0.20;100.00;103328.94;5022273;28;20025;-56
2024/01/12 06:07:25;;;;;;;38.47;19.95;;;;;;;0.21;100.00;103333.28;5021094;28;20520;-57
2024/01/12 06:09:50;;;;;;;34.35;19.48;;;;;;;0.21;100.00;103335.88;5020717;28;20048;-57
2024/01/12 06:12:15;;;;;;;39.30;19.90;;;;;;;0.21;100.00;103335.88;5021881;28;20416;-57
2024/01/12 06:14:41;;;;;;;36.55;19.40;;;;;;;0.24;100.00;103337.66;5023185;28;20041;-57
2024/01/12 06:17:08;;;;;;;33.90;18.83;;;;;;;0.25;100.00;103336.78;5023981;28;20025;-56
2024/01/12 06:19:33;;;;;;;37.00;19.00;;;;;;;0.27;100.00;103335.94;5015742;28;20391;-57
2024/01/12 06:21:58;;;;;;;34.58;18.50;;;;;;;0.27;100.00;103338.56;5018748;28;20026;-56
2024/01/12 06:24:23;;;;;;;31.30;18.70;;;;;;;0.29;100.00;103343.78;5022415;28;20037;-57
2024/01/12 06:26:49;;;;;;;34.60;19.25;;;;;;;0.27;100.00;103349.00;5022209;28;20026;-56
2024/01/12 06:29:14;;;;;;;32.25;17.77;;;;;;;0.29;100.00;103343.78;5019682;28;20430;-56
2024/01/12 06:31:39;;;;;;;33.88;18.83;;;;;;;0.30;100.00;103341.19;5021040;28;20033;-56
2024/01/12 06:34:04;;;;;;;35.30;18.60;;;;;;;0.32;100.00;103349.91;5020245;28;20615;-56
2024/01/12 06:36:30;;;;;;;38.65;18.40;;;;;;;0.32;100.00;103346.44;5022563;28;20025;-56
2024/01/12 06:38:55;;;;;;;33.47;18.45;;;;;;;0.34;100.00;103360.38;5024699;28;20391;-55
2024/01/12 06:41:20;;;;;;;34.63;18.25;;;;;;;0.34;100.00;103352.53;5021834;28;20032;-56
2024/01/12 06:43:46;;;;;;;33.17;18.02;;;;;;;0.34;100.00;103358.63;5018209;28;20033;-56
2024/01/12 06:46:11;;;;;;;27.35;17.42;;;;;;;0.36;100.00;103358.66;5022331;28;20075;-53
2024/01/12 06:48:36;;;;;;;34.45;17.55;;;;;;;0.37;100.00;103357.81;5021253;28;20034;-55
2024/01/12 06:51:02;;;;;;;31.92;17.55;;;;;;;0.38;100.00;103362.13;5016793;28;20050;-55
2024/01/12 06:53:27;;;;;;;32.47;17.25;;;;;;;0.41;100.00;103358.69;5022890;28;20032;-57
2024/01/12 06:55:52;;;;;;;34.50;19.70;;;;;;;0.41;100.00;103358.69;5019417;28;20029;-54
2024/01/12 06:58:18;;;;;;;34.13;17.48;;;;;;;0.41;100.00;103359.56;5015859;28;20250;-52
2024/01/12 07:00:43;;;;;;;31.05;17.58;;;;;;;0.43;100.00;103360.44;5019527;28;20506;-56
2024/01/12 07:03:08;;;;;;;32.90;17.48;;;;;;;0.44;100.00;103367.41;5016130;28;20026;-56
2024/01/12 07:05:34;;;;;;;32.78;17.52;;;;;;;0.46;100.00;103367.44;5016893;28;20048;-56
2024/01/12 07:07:59;;;;;;;35.22;17.20;;;;;;;0.47;100.00;103367.44;5019434;28;20104;-55
2024/01/12 07:10:24;;;;;;;32.83;17.08;;;;;;;0.49;100.00;103365.69;5020037;28;20037;-56
2024/01/12 07:12:52;;;;;;;31.42;16.35;;;;;;;0.49;100.00;103357.00;5014011;28;20121;-55
2024/01/12 07:15:18;;;;;;;30.98;15.15;;;;;;;0.50;100.00;103358.72;5014262;28;20437;-55
2024/01/12 07:17:43;;;;;;;28.05;15.55;;;;;;;0.49;100.00;103357.88;5018925;28;20075;-56
2024/01/12 07:20:10;;;;;;;30.67;14.57;;;;;;;0.50;100.00;103356.09;5015913;28;20053;-55
2024/01/12 07:22:36;;;;;;;33.03;15.52;;;;;;;0.50;100.00;103346.56;5019336;28;20057;-55
2024/01/12 07:25:01;;;;;;;40.50;20.48;;;;;;;0.50;100.00;103348.25;5006784;28;20457;-55
2024/01/12 07:27:26;;;;;;;32.97;18.65;;;;;;;0.49;100.00;103342.16;5013550;28;20029;-57
2024/01/12 07:29:52;;;;;;;31.05;16.45;;;;;;;0.48;100.00;103343.06;5011766;28;20034;-54
2024/01/12 07:32:17;;;;;;;30.00;16.23;;;;;;;0.49;100.00;103336.06;5016511;28;20034;-56
2024/01/12 07:34:42;;;;;;;28.90;16.10;;;;;;;0.48;100.00;103334.31;5016538;28;20494;-55
2024/01/12 07:37:07;;;;;;;29.55;15.70;;;;;;;0.47;100.00;103329.97;5015347;28;20065;-55
2024/01/12 07:39:33;;;;;;;27.38;14.55;;;;;;;0.47;100.00;103333.44;5016750;28;20038;-56
2024/01/12 07:41:58;;;;;;;33.80;16.13;;;;;;;0.46;100.00;103336.06;5015683;28;20033;-56
2024/01/12 07:44:24;;;;;;;29.40;15.07;;;;;;;0.46;100.00;103338.66;5017228;28;20040;-56
2024/01/12 07:46:49;;;;;;;28.92;14.27;;;;;;;0.43;100.00;103334.28;5018185;28;20145;-55
2024/01/12 07:49:15;;;;;;;27.00;14.10;;;;;;;0.43;100.00;103338.66;5019451;28;20034;-57
2024/01/12 07:51:40;;;;;;;34.20;14.40;;;;;;;0.42;100.00;103336.88;5015258;28;20049;-55
2024/01/12 07:54:06;;;;;;;27.35;14.82;;;;;;;0.42;100.00;103342.13;5016399;28;20033;-54
2024/01/12 07:56:31;;;;;;;26.85;13.48;;;;;;;0.40;100.00;103339.53;5014543;28;20026;-55
2024/01/12 07:58:57;;;;;;;29.13;14.18;;;;;;;0.39;100.00;103337.75;5017812;28;20022;-55
2024/01/12 08:01:23;;;;;;;27.65;14.18;;;;;;;0.42;100.00;103327.31;5024689;28;20119;-56
2024/01/12 08:03:48;;;;;;;31.52;14.48;;;;;;;0.42;100.00;103323.81;5016100;28;20057;-57
2024/01/12 08:06:14;;;;;;;32.20;14.93;;;;;;;0.42;100.00;103329.03;5018419;28;20491;-57
2024/01/12 08:08:40;;;;;;;41.65;15.68;;;;;;;0.40;100.00;103325.56;5016072;28;20133;-56
2024/01/12 08:11:05;;;;;;;31.33;14.32;;;;;;;0.41;100.00;103330.78;5017926;28;20117;-56
2024/01/12 08:13:30;;;;;;;28.23;14.43;;;;;;;0.42;100.00;103339.50;5022304;28;20032;-56
2024/01/12 08:15:57;;;;;;;26.48;14.18;;;;;;;0.39;100.00;103336.91;5016437;28;20375;-57
2024/01/12 08:18:22;;;;;;;31.33;14.00;;;;;;;0.39;100.00;103342.13;5017726;28;20053;-57
2024/01/12 08:20:48;;;;;;;25.92;14.32;;;;;;;0.39;100.00;103339.50;5016165;28;20557;-57
2024/01/12 08:23:15;;;;;;;27.98;14.30;;;;;;;0.40;100.00;103343.84;5015348;28;20041;-57
2024/01/12 08:25:40;;;;;;;30.85;14.10;;;;;;;0.40;100.00;103338.63;5017173;28;20506;-56
2024/01/12 08:28:05;;;;;;;31.25;14.13;;;;;;;0.40;100.00;103336.91;5018601;28;20037;-57
2024/01/12 08:30:33;;;;;;;25.42;14.10;;;;;;;0.42;100.00;103342.13;5016510;28;20026;-57
2024/01/12 08:32:59;;;;;;;26.75;13.77;;;;;;;0.43;100.00;103344.75;5019688;28;20022;-57
2024/01/12 08:35:24;;;;;;;26.42;13.70;;;;;;;0.44;100.00;103343.03;5015527;28;20477;-58
2024/01/12 08:37:49;;;;;;;27.02;13.00;;;;;;;0.43;100.00;103347.34;5012656;28;20356;-57
2024/01/12 08:40:14;;;;;;;26.13;13.27;;;;;;;0.44;100.00;103350.88;5019746;28;20108;-56
2024/01/12 08:42:40;;;;;;;28.17;14.70;;;;;;;0.46;100.00;103354.34;5017457;28;20034;-57
2024/01/12 08:45:06;;;;;;;27.05;14.13;;;;;;;0.46;100.00;103357.84;5017654;28;20547;-55
2024/01/12 08:47:31;;;;;;;25.98;14.68;;;;;;;0.46;100.00;103357.84;5016448;28;20044;-57
2024/01/12 08:49:58;;;;;;;29.83;14.80;;;;;;;0.47;100.00;103359.59;5014818;28;20105;-55
2024/01/12 08:52:23;;;;;;;27.25;14.50;;;;;;;0.48;100.00;103358.75;5017333;28;20050;-54
2024/01/12 08:54:48;;;;;;;31.23;14.75;;;;;;;0.50;100.00;103358.72;5015594;28;20029;-57
2024/01/12 08:57:13;;;;;;;36.05;16.75;;;;;;;0.51;100.00;103348.28;5011786;28;20026;-55
2024/01/12 08:59:39;;;;;;;29.88;15.57;;;;;;;0.52;100.00;103349.19;5018858;28;20455;-56
2024/01/12 09:02:04;;;;;;;29.65;14.00;;;;;;;0.54;100.00;103348.31;5021151;28;20029;-57
2024/01/12 09:04:31;;;;;;;32.92;14.40;;;;;;;0.56;100.00;103350.94;5021514;28;20499;-56
2024/01/12 09:06:56;;;;;;;27.13;13.50;;;;;;;0.57;100.00;103355.31;5017361;28;20037;-55
2024/01/12 09:09:21;;;;;;;27.60;14.70;;;;;;;0.59;100.00;103348.34;5015656;28;20454;-56
2024/01/12 09:11:47;;;;;;;33.00;14.90;;;;;;;0.62;100.00;103356.19;5018176;28;20034;-56
2024/01/12 09:14:12;;;;;;;29.38;15.13;;;;;;;0.64;100.00;103356.22;5014822;28;20030;-57
2024/01/12 09:16:37;;;;;;;30.02;16.00;;;;;;;0.67;100.00;103357.09;5019659;28;20390;-57
2024/01/12 09:19:03;;;;;;;31.67;14.60;;;;;;;0.69;100.00;103354.50;5019433;28;20040;-56
2024/01/12 09:21:28;;;;;;;30.17;14.25;;;;;;;0.72;100.00;103357.13;5018289;28;20485;-57
2024/01/12 09:23:53;;;;;;;32.22;15.07;;;;;;;0.74;100.00;103347.53;5016965;28;20032;-57
2024/01/12 09:26:19;;;;;;;28.65;14.85;;;;;;;0.77;100.00;103354.50;5011769;28;20092;-58
2024/01/12 09:28:44;;;;;;;29.48;16.33;;;;;;;0.79;100.00;103356.28;5015446;28;20033;-57
2024/01/12 09:31:09;;;;;;;32.13;15.82;;;;;;;0.81;100.00;103354.53;5017396;28;20021;-55
2024/01/12 09:33:35;;;;;;;29.00;15.60;;;;;;;0.84;100.00;103351.94;5016233;28;20056;-57
2024/01/12 09:36:02;;;;;;;25.88;15.20;;;;;;;0.87;100.00;103346.72;5014638;28;20038;-55
2024/01/12 09:38:27;;;;;;;30.85;15.43;;;;;;;0.89;100.00;103352.84;5016417;28;20061;-56
2024/01/12 09:40:52;;;;;;;32.10;14.13;;;;;;;0.94;100.00;103354.63;5016302;28;20061;-58
2024/01/12 09:43:21;;;;;;;30.08;17.40;;;;;;;0.95;100.00;103362.47;5019234;28;20032;-56
2024/01/12 09:45:49;;;;;;;33.95;14.77;;;;;;;0.99;100.00;103355.50;5014850;28;20498;-56
2024/01/12 09:48:14;;;;;;;33.53;14.82;;;;;;;1.00;100.00;103352.91;5018483;28;20074;-56
2024/01/12 09:50:40;;;;;;;29.63;14.77;;;;;;;1.04;100.00;103352.03;5008848;28;20049;-57
2024/01/12 09:53:06;;;;;;;30.20;14.43;;;;;;;1.06;100.00;103352.91;5015499;28;20026;-56
2024/01/12 09:55:32;;;;;;;30.08;13.60;;;;;;;1.09;100.00;103352.91;5015485;28;20033;-56
2024/01/12 09:58:00;;;;;;;29.05;12.68;;;;;;;1.13;100.00;103347.69;5014099;28;20106;-57
2024/01/12 10:00:26;;;;;;;28.05;13.95;;;;;;;1.16;100.00;103345.09;5014888;28;20026;-55
2024/01/12 10:02:52;;;;;;;31.92;14.00;;;;;;;1.19;100.00;103350.34;5015003;28;20268;-57
2024/01/12 10:05:17;;;;;;;28.05;13.45;;;;;;;1.22;100.00;103345.13;5017173;28;20018;-57
2024/01/12 10:07:43;;;;;;;28.50;13.38;;;;;;;1.24;100.00;103340.75;5017536;28;20471;-57
2024/01/12 10:10:08;;;;;;;27.90;13.75;;;;;;;1.28;100.00;103345.13;5011568;28;20018;-59
2024/01/12 10:12:34;;;;;;;31.35;13.50;;;;;;;1.31;100.00;103339.03;5020350;28;20072;-57
2024/01/12 10:15:10;;;;;;;29.40;13.60;;;;;;;1.35;100.00;103338.16;5009517;28;20030;-57
2024/01/12 10:17:36;;;;;;;25.35;12.75;;;;;;;1.38;100.00;103338.16;5014443;28;20497;-58
2024/01/12 10:20:03;;;;;;;26.92;12.52;;;;;;;1.40;100.00;103345.16;5013877;28;20034;-57
2024/01/12 10:22:30;;;;;;;32.85;14.00;;;;;;;1.42;100.00;103345.16;5018179;28;20397;-58
2024/01/12 10:25:00;;;;;;;29.40;13.70;;;;;;;1.44;100.00;103346.03;5013406;28;20041;-57
2024/01/12 10:27:26;;;;;;;26.10;13.30;;;;;;;1.48;100.00;103353.00;5014537;28;20389;-57
2024/01/12 10:29:51;;;;;;;27.02;13.88;;;;;;;1.52;100.00;103343.44;5017660;28;20029;-56
2024/01/12 10:32:18;;;;;;;27.27;13.13;;;;;;;1.55;100.00;103348.66;5020082;28;20388;-58
2024/01/12 10:34:46;;;;;;;30.25;12.65;;;;;;;1.58;100.00;103344.31;5017350;28;20132;-57
2024/01/12 10:37:15;;;;;;;34.45;13.15;;;;;;;1.62;100.00;103345.19;5018990;28;20126;-58
2024/01/12 10:39:43;;;;;;;18.93;12.70;;;;;;;1.66;100.00;103341.69;5013929;28;20414;-58
2024/01/12 10:42:10;;;;;;;35.30;19.95;;;;;;;1.70;100.00;103329.47;5015797;28;20033;-57
2024/01/12 10:44:39;;;;;;;32.92;13.45;;;;;;;1.69;100.00;103323.38;5018610;28;20029;-59
2024/01/12 10:47:05;;;;;;;;;;;;;;;1.79;100.00;103330.34;5010762;28;20464;-58
2024/01/12 10:49:42;;;;;;;25.35;11.57;;;;;;;1.77;100.00;103324.25;5021022;28;19910;-57
2024/01/12 10:52:13;;;;;;;26.65;12.93;;;;;;;1.79;100.00;103319.88;5021178;28;20046;-57
2024/01/12 10:55:07;;;;;;;21.80;12.40;;;;;;;1.83;100.00;103323.34;5017447;28;20429;-58
2024/01/12 10:57:32;;;;;;;27.45;12.95;;;;;;;1.83;100.00;103320.72;5018235;28;20029;-58
2024/01/12 10:59:59;;;;;;;72.22;33.35;;;;;;;1.84;100.00;103319.88;5021748;28;20038;-57
2024/01/12 11:02:25;;;;;;;34.38;15.90;;;;;;;1.85;100.00;103321.63;5016005;28;20036;-57